sensor_id;sensor_type;location;lat;lon;timestamp;temperature;humidity
76168;DHT22;64927;48.214;16.378;2024-02-26T00:02:16;9.90;61.40
76168;DHT22;64927;48.214;16.378;2024-02-26T00:04:42;9.90;61.50
76168;DHT22;64927;48.214;16.378;2024-02-26T00:07:08;9.90;62.30
76168;DHT22;64927;48.214;16.378;2024-02-26T00:09:33;9.70;61.60
76168;DHT22;64927;48.214;16.378;2024-02-26T00:12:04;9.70;61.90
76168;DHT22;64927;48.214;16.378;2024-02-26T00:14:31;9.80;62.00
76168;DHT22;64927;48.214;16.378;2024-02-26T00:16:59;9.70;61.80
76168;DHT22;64927;48.214;16.378;2024-02-26T00:19:25;9.70;61.90
76168;DHT22;64927;48.214;16.378;2024-02-26T00:21:51;9.60;62.30
76168;DHT22;64927;48.214;16.378;2024-02-26T00:24:16;9.50;62.40
76168;DHT22;64927;48.214;16.378;2024-02-26T00:26:42;9.50;62.50
76168;DHT22;64927;48.214;16.378;2024-02-26T00:29:08;9.50;63.00
76168;DHT22;64927;48.214;16.378;2024-02-26T00:31:33;9.50;63.10
76168;DHT22;64927;48.214;16.378;2024-02-26T00:33:59;9.60;63.00
76168;DHT22;64927;48.214;16.378;2024-02-26T00:36:25;9.70;62.80
76168;DHT22;64927;48.214;16.378;2024-02-26T00:38:52;9.70;62.50
76168;DHT22;64927;48.214;16.378;2024-02-26T00:41:21;9.70;62.50
76168;DHT22;64927;48.214;16.378;2024-02-26T00:43:47;9.70;62.40
76168;DHT22;64927;48.214;16.378;2024-02-26T00:46:13;9.70;62.70
76168;DHT22;64927;48.214;16.378;2024-02-26T00:48:38;9.70;62.80
76168;DHT22;64927;48.214;16.378;2024-02-26T00:51:05;9.70;62.70
76168;DHT22;64927;48.214;16.378;2024-02-26T00:53:31;9.70;62.80
76168;DHT22;64927;48.214;16.378;2024-02-26T00:55:57;9.60;63.10
76168;DHT22;64927;48.214;16.378;2024-02-26T00:58:24;9.50;63.40
76168;DHT22;64927;48.214;16.378;2024-02-26T01:00:50;9.40;63.90
76168;DHT22;64927;48.214;16.378;2024-02-26T01:03:16;9.40;64.40
76168;DHT22;64927;48.214;16.378;2024-02-26T01:05:42;9.30;64.60
76168;DHT22;64927;48.214;16.378;2024-02-26T01:08:08;9.30;64.90
76168;DHT22;64927;48.214;16.378;2024-02-26T01:10:33;9.20;65.30
76168;DHT22;64927;48.214;16.378;2024-02-26T01:12:59;9.20;65.70
76168;DHT22;64927;48.214;16.378;2024-02-26T01:15:25;9.10;65.80
76168;DHT22;64927;48.214;16.378;2024-02-26T01:17:51;9.10;66.00
76168;DHT22;64927;48.214;16.378;2024-02-26T01:20:19;9.10;66.10
76168;DHT22;64927;48.214;16.378;2024-02-26T01:22:48;9.10;66.40
76168;DHT22;64927;48.214;16.378;2024-02-26T01:25:17;9.00;66.50
76168;DHT22;64927;48.214;16.378;2024-02-26T01:27:43;9.00;66.40
76168;DHT22;64927;48.214;16.378;2024-02-26T01:30:10;9.00;66.60
76168;DHT22;64927;48.214;16.378;2024-02-26T01:32:41;9.00;66.70
76168;DHT22;64927;48.214;16.378;2024-02-26T01:35:09;9.00;67.00
76168;DHT22;64927;48.214;16.378;2024-02-26T01:37:37;9.00;67.20
76168;DHT22;64927;48.214;16.378;2024-02-26T01:40:03;9.00;67.40
76168;DHT22;64927;48.214;16.378;2024-02-26T01:42:30;8.90;67.90
76168;DHT22;64927;48.214;16.378;2024-02-26T01:45:00;8.80;68.10
76168;DHT22;64927;48.214;16.378;2024-02-26T01:47:26;8.80;68.20
76168;DHT22;64927;48.214;16.378;2024-02-26T01:49:53;8.70;68.20
76168;DHT22;64927;48.214;16.378;2024-02-26T01:52:19;8.70;68.50
76168;DHT22;64927;48.214;16.378;2024-02-26T01:54:46;8.80;68.50
76168;DHT22;64927;48.214;16.378;2024-02-26T01:57:12;8.70;68.50
76168;DHT22;64927;48.214;16.378;2024-02-26T01:59:39;8.80;68.70
76168;DHT22;64927;48.214;16.378;2024-02-26T02:02:07;8.70;68.70
76168;DHT22;64927;48.214;16.378;2024-02-26T02:04:36;8.70;68.70
76168;DHT22;64927;48.214;16.378;2024-02-26T02:07:03;8.70;68.60
76168;DHT22;64927;48.214;16.378;2024-02-26T02:09:28;8.70;68.70
76168;DHT22;64927;48.214;16.378;2024-02-26T02:11:56;8.70;68.50
76168;DHT22;64927;48.214;16.378;2024-02-26T02:14:23;8.80;68.30
76168;DHT22;64927;48.214;16.378;2024-02-26T02:16:49;8.70;68.20
76168;DHT22;64927;48.214;16.378;2024-02-26T02:19:14;8.70;68.10
76168;DHT22;64927;48.214;16.378;2024-02-26T02:21:40;8.60;68.20
76168;DHT22;64927;48.214;16.378;2024-02-26T02:24:06;8.70;68.20
76168;DHT22;64927;48.214;16.378;2024-02-26T02:26:31;8.70;68.20
76168;DHT22;64927;48.214;16.378;2024-02-26T02:29:00;8.60;68.00
76168;DHT22;64927;48.214;16.378;2024-02-26T02:31:26;8.60;68.00
76168;DHT22;64927;48.214;16.378;2024-02-26T02:33:52;8.60;68.00
76168;DHT22;64927;48.214;16.378;2024-02-26T02:36:18;8.60;68.00
76168;DHT22;64927;48.214;16.378;2024-02-26T02:38:50;8.60;68.00
76168;DHT22;64927;48.214;16.378;2024-02-26T02:41:16;8.60;68.00
76168;DHT22;64927;48.214;16.378;2024-02-26T02:43:42;8.60;67.90
76168;DHT22;64927;48.214;16.378;2024-02-26T02:46:08;8.60;67.70
76168;DHT22;64927;48.214;16.378;2024-02-26T02:48:33;8.50;67.80
76168;DHT22;64927;48.214;16.378;2024-02-26T02:50:59;8.50;67.80
76168;DHT22;64927;48.214;16.378;2024-02-26T02:53:27;8.50;67.90
76168;DHT22;64927;48.214;16.378;2024-02-26T02:55:52;8.50;67.60
76168;DHT22;64927;48.214;16.378;2024-02-26T02:58:18;8.50;67.80
76168;DHT22;64927;48.214;16.378;2024-02-26T03:00:46;8.40;67.80
76168;DHT22;64927;48.214;16.378;2024-02-26T03:03:14;8.50;67.60
76168;DHT22;64927;48.214;16.378;2024-02-26T03:05:42;8.40;67.50
76168;DHT22;64927;48.214;16.378;2024-02-26T03:08:08;8.40;67.50
76168;DHT22;64927;48.214;16.378;2024-02-26T03:10:36;8.40;67.60
76168;DHT22;64927;48.214;16.378;2024-02-26T03:13:01;8.40;67.30
76168;DHT22;64927;48.214;16.378;2024-02-26T03:15:28;8.40;67.90
76168;DHT22;64927;48.214;16.378;2024-02-26T03:17:56;8.40;67.20
76168;DHT22;64927;48.214;16.378;2024-02-26T03:20:23;8.40;67.30
76168;DHT22;64927;48.214;16.378;2024-02-26T03:22:49;8.40;67.20
76168;DHT22;64927;48.214;16.378;2024-02-26T03:25:15;8.40;67.30
76168;DHT22;64927;48.214;16.378;2024-02-26T03:27:40;8.50;67.30
76168;DHT22;64927;48.214;16.378;2024-02-26T03:30:06;8.50;67.10
76168;DHT22;64927;48.214;16.378;2024-02-26T03:32:32;8.50;67.10
76168;DHT22;64927;48.214;16.378;2024-02-26T03:34:57;8.50;67.20
76168;DHT22;64927;48.214;16.378;2024-02-26T03:37:23;8.50;67.10
76168;DHT22;64927;48.214;16.378;2024-02-26T03:39:49;8.50;67.20
76168;DHT22;64927;48.214;16.378;2024-02-26T03:42:14;8.60;67.20
76168;DHT22;64927;48.214;16.378;2024-02-26T03:44:41;8.60;67.10
76168;DHT22;64927;48.214;16.378;2024-02-26T03:47:10;8.60;67.10
76168;DHT22;64927;48.214;16.378;2024-02-26T03:49:40;8.60;66.90
76168;DHT22;64927;48.214;16.378;2024-02-26T03:52:06;8.70;66.70
76168;DHT22;64927;48.214;16.378;2024-02-26T03:54:32;8.70;66.60
76168;DHT22;64927;48.214;16.378;2024-02-26T03:56:57;8.60;66.60
76168;DHT22;64927;48.214;16.378;2024-02-26T03:59:23;8.70;66.70
76168;DHT22;64927;48.214;16.378;2024-02-26T04:01:50;8.60;66.40
76168;DHT22;64927;48.214;16.378;2024-02-26T04:04:16;8.60;66.60
76168;DHT22;64927;48.214;16.378;2024-02-26T04:06:46;8.60;66.80
76168;DHT22;64927;48.214;16.378;2024-02-26T04:09:13;8.60;66.50
76168;DHT22;64927;48.214;16.378;2024-02-26T04:11:39;8.70;66.40
76168;DHT22;64927;48.214;16.378;2024-02-26T04:14:05;8.70;66.10
76168;DHT22;64927;48.214;16.378;2024-02-26T04:16:34;8.80;66.10
76168;DHT22;64927;48.214;16.378;2024-02-26T04:19:00;8.80;66.00
76168;DHT22;64927;48.214;16.378;2024-02-26T04:21:26;8.80;66.00
76168;DHT22;64927;48.214;16.378;2024-02-26T04:23:52;8.90;66.00
76168;DHT22;64927;48.214;16.378;2024-02-26T04:26:20;8.80;65.80
76168;DHT22;64927;48.214;16.378;2024-02-26T04:28:47;8.80;66.00
76168;DHT22;64927;48.214;16.378;2024-02-26T04:31:12;8.80;66.10
76168;DHT22;64927;48.214;16.378;2024-02-26T04:33:38;8.80;66.10
76168;DHT22;64927;48.214;16.378;2024-02-26T04:36:04;8.80;66.30
76168;DHT22;64927;48.214;16.378;2024-02-26T04:38:32;8.80;66.30
76168;DHT22;64927;48.214;16.378;2024-02-26T04:40:57;8.80;66.30
76168;DHT22;64927;48.214;16.378;2024-02-26T04:43:23;8.70;66.40
76168;DHT22;64927;48.214;16.378;2024-02-26T04:45:48;8.70;66.50
76168;DHT22;64927;48.214;16.378;2024-02-26T04:48:14;8.70;66.60
76168;DHT22;64927;48.214;16.378;2024-02-26T04:50:44;8.70;66.70
76168;DHT22;64927;48.214;16.378;2024-02-26T04:53:10;8.70;66.70
76168;DHT22;64927;48.214;16.378;2024-02-26T04:55:36;8.60;67.00
76168;DHT22;64927;48.214;16.378;2024-02-26T04:58:01;8.60;67.10
76168;DHT22;64927;48.214;16.378;2024-02-26T05:00:30;8.50;67.50
76168;DHT22;64927;48.214;16.378;2024-02-26T05:02:55;8.40;67.90
76168;DHT22;64927;48.214;16.378;2024-02-26T05:05:21;8.40;68.00
76168;DHT22;64927;48.214;16.378;2024-02-26T05:07:47;8.40;68.10
76168;DHT22;64927;48.214;16.378;2024-02-26T05:10:12;8.40;67.90
76168;DHT22;64927;48.214;16.378;2024-02-26T05:12:38;8.30;67.90
76168;DHT22;64927;48.214;16.378;2024-02-26T05:15:08;8.30;68.20
76168;DHT22;64927;48.214;16.378;2024-02-26T05:17:34;8.30;68.40
76168;DHT22;64927;48.214;16.378;2024-02-26T05:20:00;8.30;68.60
76168;DHT22;64927;48.214;16.378;2024-02-26T05:22:25;8.30;68.50
76168;DHT22;64927;48.214;16.378;2024-02-26T05:24:51;8.30;68.70
76168;DHT22;64927;48.214;16.378;2024-02-26T05:27:20;8.30;68.70
76168;DHT22;64927;48.214;16.378;2024-02-26T05:29:45;8.40;69.50
76168;DHT22;64927;48.214;16.378;2024-02-26T05:32:11;8.40;69.00
76168;DHT22;64927;48.214;16.378;2024-02-26T05:34:36;8.50;68.90
76168;DHT22;64927;48.214;16.378;2024-02-26T05:37:02;8.50;68.80
76168;DHT22;64927;48.214;16.378;2024-02-26T05:39:30;8.70;69.90
76168;DHT22;64927;48.214;16.378;2024-02-26T05:41:56;8.70;68.10
76168;DHT22;64927;48.214;16.378;2024-02-26T05:44:23;8.60;67.20
76168;DHT22;64927;48.214;16.378;2024-02-26T05:46:51;8.60;67.50
76168;DHT22;64927;48.214;16.378;2024-02-26T05:49:17;8.50;67.90
76168;DHT22;64927;48.214;16.378;2024-02-26T05:51:42;8.40;67.90
76168;DHT22;64927;48.214;16.378;2024-02-26T05:54:10;8.40;68.00
76168;DHT22;64927;48.214;16.378;2024-02-26T05:56:36;8.40;68.10
76168;DHT22;64927;48.214;16.378;2024-02-26T05:59:02;8.40;68.00
76168;DHT22;64927;48.214;16.378;2024-02-26T06:01:28;8.30;68.00
76168;DHT22;64927;48.214;16.378;2024-02-26T06:03:53;8.30;69.10
76168;DHT22;64927;48.214;16.378;2024-02-26T06:06:19;8.30;68.20
76168;DHT22;64927;48.214;16.378;2024-02-26T06:08:46;8.40;67.90
76168;DHT22;64927;48.214;16.378;2024-02-26T06:11:11;8.40;68.60
76168;DHT22;64927;48.214;16.378;2024-02-26T06:13:37;8.30;68.00
76168;DHT22;64927;48.214;16.378;2024-02-26T06:16:03;8.30;67.90
76168;DHT22;64927;48.214;16.378;2024-02-26T06:18:29;8.30;67.90
76168;DHT22;64927;48.214;16.378;2024-02-26T06:20:54;8.40;67.90
76168;DHT22;64927;48.214;16.378;2024-02-26T06:23:23;8.30;67.90
76168;DHT22;64927;48.214;16.378;2024-02-26T06:25:48;8.30;67.80
76168;DHT22;64927;48.214;16.378;2024-02-26T06:28:14;8.30;67.90
76168;DHT22;64927;48.214;16.378;2024-02-26T06:30:40;8.40;67.90
76168;DHT22;64927;48.214;16.378;2024-02-26T06:33:05;8.40;68.00
76168;DHT22;64927;48.214;16.378;2024-02-26T06:35:33;8.50;67.50
76168;DHT22;64927;48.214;16.378;2024-02-26T06:37:59;8.50;67.50
76168;DHT22;64927;48.214;16.378;2024-02-26T06:40:25;8.50;67.60
76168;DHT22;64927;48.214;16.378;2024-02-26T06:42:51;8.60;67.20
76168;DHT22;64927;48.214;16.378;2024-02-26T06:45:17;8.60;67.20
76168;DHT22;64927;48.214;16.378;2024-02-26T06:47:44;8.60;67.60
76168;DHT22;64927;48.214;16.378;2024-02-26T06:50:12;8.60;68.10
76168;DHT22;64927;48.214;16.378;2024-02-26T06:52:39;8.70;68.00
76168;DHT22;64927;48.214;16.378;2024-02-26T06:55:05;8.70;67.90
76168;DHT22;64927;48.214;16.378;2024-02-26T06:57:36;8.70;68.00
76168;DHT22;64927;48.214;16.378;2024-02-26T07:00:02;8.80;67.70
76168;DHT22;64927;48.214;16.378;2024-02-26T07:02:29;8.90;67.60
76168;DHT22;64927;48.214;16.378;2024-02-26T07:04:55;8.90;67.50
76168;DHT22;64927;48.214;16.378;2024-02-26T07:07:21;9.00;67.50
76168;DHT22;64927;48.214;16.378;2024-02-26T07:09:49;9.10;66.90
76168;DHT22;64927;48.214;16.378;2024-02-26T07:12:14;9.10;66.50
76168;DHT22;64927;48.214;16.378;2024-02-26T07:14:43;9.20;66.80
76168;DHT22;64927;48.214;16.378;2024-02-26T07:17:09;9.30;66.50
76168;DHT22;64927;48.214;16.378;2024-02-26T07:19:35;9.40;66.10
76168;DHT22;64927;48.214;16.378;2024-02-26T07:22:01;9.40;66.20
76168;DHT22;64927;48.214;16.378;2024-02-26T07:24:27;9.50;65.80
76168;DHT22;64927;48.214;16.378;2024-02-26T07:26:53;9.70;65.60
76168;DHT22;64927;48.214;16.378;2024-02-26T07:29:20;9.80;65.40
76168;DHT22;64927;48.214;16.378;2024-02-26T07:31:48;10.00;64.60
76168;DHT22;64927;48.214;16.378;2024-02-26T07:34:14;10.00;64.30
76168;DHT22;64927;48.214;16.378;2024-02-26T07:36:40;10.10;64.20
76168;DHT22;64927;48.214;16.378;2024-02-26T07:39:05;10.30;63.50
76168;DHT22;64927;48.214;16.378;2024-02-26T07:41:31;10.30;63.30
76168;DHT22;64927;48.214;16.378;2024-02-26T07:43:59;10.50;64.50
76168;DHT22;64927;48.214;16.378;2024-02-26T07:46:25;10.90;62.90
76168;DHT22;64927;48.214;16.378;2024-02-26T07:48:53;11.20;61.80
76168;DHT22;64927;48.214;16.378;2024-02-26T07:51:20;11.30;60.60
76168;DHT22;64927;48.214;16.378;2024-02-26T07:53:47;11.30;60.50
76168;DHT22;64927;48.214;16.378;2024-02-26T07:56:13;11.20;60.50
76168;DHT22;64927;48.214;16.378;2024-02-26T07:58:39;11.20;60.90
76168;DHT22;64927;48.214;16.378;2024-02-26T08:01:04;11.30;61.30
76168;DHT22;64927;48.214;16.378;2024-02-26T08:03:30;11.50;60.50
76168;DHT22;64927;48.214;16.378;2024-02-26T08:05:58;11.60;59.80
76168;DHT22;64927;48.214;16.378;2024-02-26T08:08:26;11.70;59.10
76168;DHT22;64927;48.214;16.378;2024-02-26T08:10:52;11.70;59.40
76168;DHT22;64927;48.214;16.378;2024-02-26T08:13:19;11.50;59.70
76168;DHT22;64927;48.214;16.378;2024-02-26T08:15:45;11.40;59.20
76168;DHT22;64927;48.214;16.378;2024-02-26T08:18:11;11.30;59.90
76168;DHT22;64927;48.214;16.378;2024-02-26T08:20:36;11.20;60.70
76168;DHT22;64927;48.214;16.378;2024-02-26T08:23:02;11.40;60.70
76168;DHT22;64927;48.214;16.378;2024-02-26T08:25:28;11.40;60.10
76168;DHT22;64927;48.214;16.378;2024-02-26T08:27:54;11.30;60.20
76168;DHT22;64927;48.214;16.378;2024-02-26T08:30:20;11.40;60.50
76168;DHT22;64927;48.214;16.378;2024-02-26T08:32:48;11.50;60.50
76168;DHT22;64927;48.214;16.378;2024-02-26T08:35:14;11.40;59.70
76168;DHT22;64927;48.214;16.378;2024-02-26T08:37:44;11.40;60.00
76168;DHT22;64927;48.214;16.378;2024-02-26T08:40:10;11.50;59.90
76168;DHT22;64927;48.214;16.378;2024-02-26T08:42:36;11.50;60.20
76168;DHT22;64927;48.214;16.378;2024-02-26T08:45:02;11.70;59.60
76168;DHT22;64927;48.214;16.378;2024-02-26T08:47:28;11.80;59.30
76168;DHT22;64927;48.214;16.378;2024-02-26T08:49:54;12.00;58.30
76168;DHT22;64927;48.214;16.378;2024-02-26T08:52:20;12.00;58.00
76168;DHT22;64927;48.214;16.378;2024-02-26T08:54:49;11.90;57.90
76168;DHT22;64927;48.214;16.378;2024-02-26T08:57:16;12.00;57.90
76168;DHT22;64927;48.214;16.378;2024-02-26T08:59:42;12.20;57.70
76168;DHT22;64927;48.214;16.378;2024-02-26T09:02:08;12.20;57.00
76168;DHT22;64927;48.214;16.378;2024-02-26T09:04:35;12.20;57.20
76168;DHT22;64927;48.214;16.378;2024-02-26T09:07:01;12.30;57.10
76168;DHT22;64927;48.214;16.378;2024-02-26T09:09:27;12.50;56.60
76168;DHT22;64927;48.214;16.378;2024-02-26T09:11:53;12.70;55.20
76168;DHT22;64927;48.214;16.378;2024-02-26T09:14:20;12.70;54.90
76168;DHT22;64927;48.214;16.378;2024-02-26T09:16:46;12.70;55.00
76168;DHT22;64927;48.214;16.378;2024-02-26T09:19:16;12.70;54.90
76168;DHT22;64927;48.214;16.378;2024-02-26T09:21:46;12.60;55.10
76168;DHT22;64927;48.214;16.378;2024-02-26T09:24:12;12.70;55.00
76168;DHT22;64927;48.214;16.378;2024-02-26T09:26:38;12.80;54.70
76168;DHT22;64927;48.214;16.378;2024-02-26T09:29:04;12.90;53.90
76168;DHT22;64927;48.214;16.378;2024-02-26T09:31:30;12.90;53.80
76168;DHT22;64927;48.214;16.378;2024-02-26T09:33:56;13.10;53.10
76168;DHT22;64927;48.214;16.378;2024-02-26T09:36:21;13.10;52.80
76168;DHT22;64927;48.214;16.378;2024-02-26T09:38:48;13.20;52.40
76168;DHT22;64927;48.214;16.378;2024-02-26T09:41:17;13.20;52.10
76168;DHT22;64927;48.214;16.378;2024-02-26T09:43:44;13.50;52.20
76168;DHT22;64927;48.214;16.378;2024-02-26T09:46:11;13.70;50.20
76168;DHT22;64927;48.214;16.378;2024-02-26T09:48:38;13.80;48.80
76168;DHT22;64927;48.214;16.378;2024-02-26T09:51:05;13.80;48.10
76168;DHT22;64927;48.214;16.378;2024-02-26T09:53:32;13.90;48.20
76168;DHT22;64927;48.214;16.378;2024-02-26T09:55:58;14.00;48.30
76168;DHT22;64927;48.214;16.378;2024-02-26T09:58:27;14.10;48.30
76168;DHT22;64927;48.214;16.378;2024-02-26T10:00:56;14.20;47.80
76168;DHT22;64927;48.214;16.378;2024-02-26T10:03:31;14.10;47.90
76168;DHT22;64927;48.214;16.378;2024-02-26T10:05:59;14.10;48.80
76168;DHT22;64927;48.214;16.378;2024-02-26T10:08:28;14.10;49.40
76168;DHT22;64927;48.214;16.378;2024-02-26T10:10:55;13.90;49.70
76168;DHT22;64927;48.214;16.378;2024-02-26T10:13:21;13.90;50.10
76168;DHT22;64927;48.214;16.378;2024-02-26T10:15:48;13.90;50.30
76168;DHT22;64927;48.214;16.378;2024-02-26T10:18:14;13.90;49.30
76168;DHT22;64927;48.214;16.378;2024-02-26T10:20:40;14.00;49.50
76168;DHT22;64927;48.214;16.378;2024-02-26T10:23:06;14.10;48.30
76168;DHT22;64927;48.214;16.378;2024-02-26T10:25:32;14.30;47.10
76168;DHT22;64927;48.214;16.378;2024-02-26T10:28:02;14.40;46.30
76168;DHT22;64927;48.214;16.378;2024-02-26T10:30:28;14.20;46.30
76168;DHT22;64927;48.214;16.378;2024-02-26T10:32:55;14.10;46.40
76168;DHT22;64927;48.214;16.378;2024-02-26T10:35:21;14.00;46.80
76168;DHT22;64927;48.214;16.378;2024-02-26T10:37:47;14.10;47.10
76168;DHT22;64927;48.214;16.378;2024-02-26T10:40:14;14.20;47.80
76168;DHT22;64927;48.214;16.378;2024-02-26T10:42:41;14.20;47.80
76168;DHT22;64927;48.214;16.378;2024-02-26T10:45:08;14.30;47.50
76168;DHT22;64927;48.214;16.378;2024-02-26T10:47:35;14.30;47.20
76168;DHT22;64927;48.214;16.378;2024-02-26T10:50:07;14.20;47.40
76168;DHT22;64927;48.214;16.378;2024-02-26T10:52:34;14.20;47.80
76168;DHT22;64927;48.214;16.378;2024-02-26T10:55:02;14.50;46.90
76168;DHT22;64927;48.214;16.378;2024-02-26T10:57:33;14.50;47.80
76168;DHT22;64927;48.214;16.378;2024-02-26T11:00:00;14.50;46.90
76168;DHT22;64927;48.214;16.378;2024-02-26T11:02:32;14.60;47.00
76168;DHT22;64927;48.214;16.378;2024-02-26T11:05:05;14.70;46.30
76168;DHT22;64927;48.214;16.378;2024-02-26T11:07:32;14.70;45.30
76168;DHT22;64927;48.214;16.378;2024-02-26T11:10:03;14.70;44.70
76168;DHT22;64927;48.214;16.378;2024-02-26T11:12:31;14.60;44.80
76168;DHT22;64927;48.214;16.378;2024-02-26T11:14:57;14.60;45.80
76168;DHT22;64927;48.214;16.378;2024-02-26T11:17:27;14.60;45.00
76168;DHT22;64927;48.214;16.378;2024-02-26T11:19:57;14.90;44.70
76168;DHT22;64927;48.214;16.378;2024-02-26T11:22:30;15.10;44.20
76168;DHT22;64927;48.214;16.378;2024-02-26T11:24:58;15.10;43.90
76168;DHT22;64927;48.214;16.378;2024-02-26T11:27:34;15.20;43.80
76168;DHT22;64927;48.214;16.378;2024-02-26T11:30:01;15.20;43.80
76168;DHT22;64927;48.214;16.378;2024-02-26T11:32:31;15.20;43.20
76168;DHT22;64927;48.214;16.378;2024-02-26T11:34:58;15.20;43.30
76168;DHT22;64927;48.214;16.378;2024-02-26T11:37:24;15.20;43.70
76168;DHT22;64927;48.214;16.378;2024-02-26T11:39:51;15.10;43.70
76168;DHT22;64927;48.214;16.378;2024-02-26T11:42:23;15.10;44.80
76168;DHT22;64927;48.214;16.378;2024-02-26T11:44:49;15.20;43.40
76168;DHT22;64927;48.214;16.378;2024-02-26T11:47:22;15.30;42.40
76168;DHT22;64927;48.214;16.378;2024-02-26T11:49:48;15.30;42.10
76168;DHT22;64927;48.214;16.378;2024-02-26T11:52:15;15.30;42.00
76168;DHT22;64927;48.214;16.378;2024-02-26T11:57:29;15.40;40.80
76168;DHT22;64927;48.214;16.378;2024-02-26T11:59:56;15.50;39.40
76168;DHT22;64927;48.214;16.378;2024-02-26T12:02:42;15.60;39.10
76168;DHT22;64927;48.214;16.378;2024-02-26T12:05:17;15.50;39.60
76168;DHT22;64927;48.214;16.378;2024-02-26T12:07:56;15.60;39.30
76168;DHT22;64927;48.214;16.378;2024-02-26T12:13:18;15.60;39.90
76168;DHT22;64927;48.214;16.378;2024-02-26T12:15:55;15.70;39.20
76168;DHT22;64927;48.214;16.378;2024-02-26T12:18:22;15.70;39.10
76168;DHT22;64927;48.214;16.378;2024-02-26T12:21:01;15.70;38.90
76168;DHT22;64927;48.214;16.378;2024-02-26T12:23:27;15.80;39.00
76168;DHT22;64927;48.214;16.378;2024-02-26T12:25:59;15.80;37.30
76168;DHT22;64927;48.214;16.378;2024-02-26T12:28:31;16.00;36.40
76168;DHT22;64927;48.214;16.378;2024-02-26T12:31:00;16.00;36.20
76168;DHT22;64927;48.214;16.378;2024-02-26T12:33:28;16.00;36.50
76168;DHT22;64927;48.214;16.378;2024-02-26T12:35:57;16.00;36.00
76168;DHT22;64927;48.214;16.378;2024-02-26T12:38:26;16.00;36.40
76168;DHT22;64927;48.214;16.378;2024-02-26T12:40:52;15.90;36.60
76168;DHT22;64927;48.214;16.378;2024-02-26T12:43:20;16.10;36.90
76168;DHT22;64927;48.214;16.378;2024-02-26T12:45:46;16.20;36.30
76168;DHT22;64927;48.214;16.378;2024-02-26T12:48:13;16.30;36.10
76168;DHT22;64927;48.214;16.378;2024-02-26T12:50:45;16.30;37.20
76168;DHT22;64927;48.214;16.378;2024-02-26T12:53:12;16.20;36.40
76168;DHT22;64927;48.214;16.378;2024-02-26T12:55:38;16.20;36.30
76168;DHT22;64927;48.214;16.378;2024-02-26T12:58:05;16.20;36.90
76168;DHT22;64927;48.214;16.378;2024-02-26T13:00:33;16.10;36.70
76168;DHT22;64927;48.214;16.378;2024-02-26T13:03:00;16.10;37.20
76168;DHT22;64927;48.214;16.378;2024-02-26T13:05:26;16.10;37.20
76168;DHT22;64927;48.214;16.378;2024-02-26T13:07:52;16.20;36.90
76168;DHT22;64927;48.214;16.378;2024-02-26T13:10:19;16.10;36.90
76168;DHT22;64927;48.214;16.378;2024-02-26T13:12:49;16.00;37.30
76168;DHT22;64927;48.214;16.378;2024-02-26T13:15:19;15.90;37.10
76168;DHT22;64927;48.214;16.378;2024-02-26T13:17:46;15.80;37.30
76168;DHT22;64927;48.214;16.378;2024-02-26T13:20:12;15.70;37.50
76168;DHT22;64927;48.214;16.378;2024-02-26T13:22:41;15.70;37.90
76168;DHT22;64927;48.214;16.378;2024-02-26T13:25:09;15.70;38.10
76168;DHT22;64927;48.214;16.378;2024-02-26T13:27:34;15.70;38.00
76168;DHT22;64927;48.214;16.378;2024-02-26T13:30:09;15.70;38.10
76168;DHT22;64927;48.214;16.378;2024-02-26T13:32:39;15.80;38.20
76168;DHT22;64927;48.214;16.378;2024-02-26T13:35:09;15.90;38.00
76168;DHT22;64927;48.214;16.378;2024-02-26T13:37:36;16.00;38.00
76168;DHT22;64927;48.214;16.378;2024-02-26T13:40:09;15.90;37.20
76168;DHT22;64927;48.214;16.378;2024-02-26T13:42:36;16.00;37.30
76168;DHT22;64927;48.214;16.378;2024-02-26T13:45:03;16.00;37.10
76168;DHT22;64927;48.214;16.378;2024-02-26T13:47:34;16.00;37.40
76168;DHT22;64927;48.214;16.378;2024-02-26T13:50:03;16.10;38.40
76168;DHT22;64927;48.214;16.378;2024-02-26T13:52:33;16.20;37.00
76168;DHT22;64927;48.214;16.378;2024-02-26T13:55:02;16.20;36.60
76168;DHT22;64927;48.214;16.378;2024-02-26T13:57:28;16.20;36.60
76168;DHT22;64927;48.214;16.378;2024-02-26T13:59:56;16.10;36.60
76168;DHT22;64927;48.214;16.378;2024-02-26T14:02:27;16.10;37.00
76168;DHT22;64927;48.214;16.378;2024-02-26T14:04:55;16.00;36.90
76168;DHT22;64927;48.214;16.378;2024-02-26T14:07:20;16.00;37.00
76168;DHT22;64927;48.214;16.378;2024-02-26T14:09:48;16.00;37.20
76168;DHT22;64927;48.214;16.378;2024-02-26T14:12:18;15.90;37.30
76168;DHT22;64927;48.214;16.378;2024-02-26T14:14:46;16.00;38.60
76168;DHT22;64927;48.214;16.378;2024-02-26T14:17:20;16.00;38.10
76168;DHT22;64927;48.214;16.378;2024-02-26T14:19:48;16.00;38.00
76168;DHT22;64927;48.214;16.378;2024-02-26T14:22:17;16.10;38.00
76168;DHT22;64927;48.214;16.378;2024-02-26T14:24:43;16.20;37.80
76168;DHT22;64927;48.214;16.378;2024-02-26T14:27:11;16.30;38.10
76168;DHT22;64927;48.214;16.378;2024-02-26T14:29:41;16.40;37.60
76168;DHT22;64927;48.214;16.378;2024-02-26T14:32:10;16.40;37.60
76168;DHT22;64927;48.214;16.378;2024-02-26T14:34:36;16.50;37.90
76168;DHT22;64927;48.214;16.378;2024-02-26T14:37:05;16.50;37.70
76168;DHT22;64927;48.214;16.378;2024-02-26T14:39:34;16.50;37.70
76168;DHT22;64927;48.214;16.378;2024-02-26T14:42:00;16.40;37.50
76168;DHT22;64927;48.214;16.378;2024-02-26T14:44:28;16.40;37.80
76168;DHT22;64927;48.214;16.378;2024-02-26T14:46:54;16.30;37.80
76168;DHT22;64927;48.214;16.378;2024-02-26T14:49:20;16.20;38.10
76168;DHT22;64927;48.214;16.378;2024-02-26T14:51:46;16.10;38.20
76168;DHT22;64927;48.214;16.378;2024-02-26T14:54:12;16.00;38.40
76168;DHT22;64927;48.214;16.378;2024-02-26T14:56:38;15.90;38.30
76168;DHT22;64927;48.214;16.378;2024-02-26T14:59:04;15.90;38.50
76168;DHT22;64927;48.214;16.378;2024-02-26T15:01:29;15.80;38.80
76168;DHT22;64927;48.214;16.378;2024-02-26T15:03:55;15.70;39.10
76168;DHT22;64927;48.214;16.378;2024-02-26T15:06:23;15.70;39.10
76168;DHT22;64927;48.214;16.378;2024-02-26T15:08:49;15.60;39.40
76168;DHT22;64927;48.214;16.378;2024-02-26T15:11:15;15.50;39.60
76168;DHT22;64927;48.214;16.378;2024-02-26T15:13:41;15.50;40.00
76168;DHT22;64927;48.214;16.378;2024-02-26T15:16:06;15.40;40.20
76168;DHT22;64927;48.214;16.378;2024-02-26T15:18:32;15.30;40.30
76168;DHT22;64927;48.214;16.378;2024-02-26T15:20:58;15.40;40.30
76168;DHT22;64927;48.214;16.378;2024-02-26T15:23:26;15.30;40.30
76168;DHT22;64927;48.214;16.378;2024-02-26T15:25:53;15.30;40.60
76168;DHT22;64927;48.214;16.378;2024-02-26T15:28:23;15.20;40.80